Flight Track Log - Related Links

Times and Time Zones

All times are in EDT time to prevent confusion due to time zone crossing. See the UAL1415 flight status page for this flight to view local times or setup timezone preferences in your user account.

Time Position Orientation Groundspeed Altitude Reporting Facility
EDT Latitude Longitude Course Direction KTS MPH feet Rate Location/Type
Wed 07:14:16 PM 33.6394 -117.8875 188° South 178 205 1,900  Level Los Angeles Center
Wed 07:15:18 PM 33.5775 -117.8975 188° South 214 246 4,600 2,688 Climbing Los Angeles Center
Wed 07:16:21 PM 33.5403 -117.8292 123° Southeast 280 322 7,500 2,880 Climbing Los Angeles Center
Wed 07:17:23 PM 33.5553 -117.7133 81° East 292 336 10,600 2,758 Climbing Los Angeles Center
Wed 07:18:25 PM 33.5642 -117.5964 85° East 342 394 13,200 2,565 Climbing Los Angeles Center
Wed 07:19:27 PM 33.5703 -117.4761 86° East 358 412 15,900 2,516 Climbing Los Angeles Center
Wed 07:20:29 PM 33.5747 -117.3464 88° East 383 441 18,400 2,516 Climbing Los Angeles Center
Wed 07:21:31 PM 33.5814 -117.2156 86° East 392 451 21,100 2,352 Climbing Los Angeles Center
Wed 07:22:34 PM 33.5889 -117.0553 87° East 399 459 23,300 1,920 Climbing Los Angeles Center
Wed 07:23:36 PM 33.5958 -116.9108 87° East 431 496 25,100 1,887 Climbing Los Angeles Center
Wed 07:24:38 PM 33.6033 -116.7581 87° East 436 502 27,200 1,742 Climbing Los Angeles Center
Wed 07:25:40 PM 33.6089 -116.6086 87° East 443 510 28,700 1,452 Climbing Los Angeles Center
Wed 07:26:42 PM 33.6153 -116.4561 87° East 451 519 30,200 1,645 Climbing Los Angeles Center
Wed 07:27:44 PM 33.6233 -116.3042 86° East 453 521 32,100 1,632 Climbing Los Angeles Center
Wed 07:28:47 PM 33.6392 -116.1519 83° East 459 528 33,600 1,392 Climbing Los Angeles Center
Wed 07:29:49 PM 33.7153 -116.0311 53° Northeast 461 531 35,000 629 Climbing Los Angeles Center
Wed 07:30:51 PM 33.8125 -115.8892 50° Northeast 458 527 34,900 -48 Descending Los Angeles Center
Wed 07:31:53 PM 33.8922 -115.7725 51° Northeast 458 527 34,900 48 Level Los Angeles Center
Wed 07:32:55 PM 33.9717 -115.6547 51° Northeast 455 524 35,000 672 Climbing Los Angeles Center
Wed 07:33:58 PM 34.0522 -115.5383 50° Northeast 454 522 36,300 1,200 Climbing Los Angeles Center
Wed 07:35:00 PM 34.1322 -115.4219 50° Northeast 453 521 37,500 1,016 Climbing Los Angeles Center
Wed 07:36:02 PM 34.2128 -115.3042 50° Northeast 453 521 38,400 726 Climbing Los Angeles Center
Wed 07:37:04 PM 34.3092 -115.1597 51° Northeast 457 526 39,000 290 Climbing Los Angeles Center
Wed 07:38:06 PM 34.3903 -115.0406 50° Northeast 457 526 39,000  Level Los Angeles Center
Wed 07:39:08 PM 34.4683 -114.9156 53° Northeast 461 531 39,000  Level Los Angeles Center
Wed 07:40:10 PM 34.5511 -114.8006 49° Northeast 459 528 39,000 -48 Level Los Angeles Center
Wed 07:41:13 PM 34.6297 -114.6803 52° Northeast 456 525 38,900  Descending Los Angeles Center
Wed 07:42:15 PM 34.7253 -114.5328 52° Northeast 462 532 39,000 48 Climbing Los Angeles Center
Wed 07:43:17 PM 34.7933 -114.4089 56° Northeast 455 524 39,000  Level Los Angeles Center
Wed 07:44:19 PM 34.8525 -114.2764 61° Northeast 448 516 39,000  Level Los Angeles Center
Wed 07:45:21 PM 34.9117 -114.1417 62° Northeast 448 516 39,000  Level Los Angeles Center
Wed 07:46:23 PM 34.9703 -114.0069 62° Northeast 448 516 39,000  Level Los Angeles Center
Wed 07:47:26 PM 35.0306 -113.8719 61° Northeast 448 516 39,000  Level Los Angeles Center
Wed 07:48:28 PM 35.1022 -113.7092 62° Northeast 449 517 39,000  Level Los Angeles Center
Wed 07:49:30 PM 35.1603 -113.5742 62° Northeast 450 518 39,000  Level Los Angeles Center
Wed 07:50:32 PM 35.2178 -113.4372 63° Northeast 450 518 39,000  Level Los Angeles Center
Wed 07:51:34 PM 35.2778 -113.2997 62° Northeast 452 520 39,000  Level Los Angeles Center
Wed 07:52:36 PM 35.3356 -113.1603 63° Northeast 459 528 39,000  Level Los Angeles Center
Wed 07:53:39 PM 35.4069 -112.9936 62° Northeast 460 529 39,000  Level Los Angeles Center
Wed 07:54:41 PM 35.4642 -112.8625 62° Northeast 470 541 39,000  Level Los Angeles Center
Wed 07:55:43 PM 35.5219 -112.7225 63° Northeast 467 537 39,000  Level Los Angeles Center
Wed 07:56:45 PM 35.5914 -112.5567 63° Northeast 467 537 39,000  Level Los Angeles Center
Wed 07:57:47 PM 35.6519 -112.4147 62° Northeast 467 537 39,000  Level Los Angeles Center
Wed 07:58:50 PM 35.7108 -112.2744 63° Northeast 466 536 39,000  Level Los Angeles Center
Wed 07:59:52 PM 35.7694 -112.1328 63° Northeast 466 536 39,000  Level Los Angeles Center
Wed 08:00:54 PM 35.8292 -111.9908 63° Northeast 466 536 39,000  Level Los Angeles Center
Wed 08:01:56 PM 35.8856 -111.8472 64° Northeast 466 536 39,000  Level Los Angeles Center
Wed 08:02:58 PM 35.9558 -111.6750 63° Northeast 466 536 39,000  Level Los Angeles Center
Wed 08:04:00 PM 36.0144 -111.5328 63° Northeast 466 536 39,000  Level Los Angeles Center
Wed 08:05:03 PM 36.0725 -111.3903 63° Northeast 466 536 39,000  Level Los Angeles Center
Wed 08:06:23 PM 36.1586 -111.2022 60° Northeast 464 534 39,000  Level Denver Center
Wed 08:07:26 PM 36.2339 -111.0742 54° Northeast 463 533 39,000  Level Denver Center
Wed 08:08:28 PM 36.3089 -110.9456 54° Northeast 463 533 39,000  Level Denver Center
Wed 08:09:30 PM 36.3844 -110.8172 54° Northeast 463 533 39,000  Level Denver Center
Wed 08:10:32 PM 36.4744 -110.6622 54° Northeast 463 533 39,000  Level Denver Center
Wed 08:11:34 PM 36.5494 -110.5317 54° Northeast 463 533 39,000  Level Denver Center
Wed 08:12:36 PM 36.6231 -110.4022 55° Northeast 463 533 39,000  Level Denver Center
Wed 08:13:38 PM 36.6978 -110.2708 55° Northeast 463 533 39,000  Level Denver Center
Wed 08:14:40 PM 36.7781 -110.1306 54° Northeast 469 540 39,000  Level Denver Center
Wed 08:15:42 PM 36.8636 -109.9811 54° Northeast 470 541 39,000  Level Denver Center
Wed 08:16:44 PM 36.9356 -109.8511 55° Northeast 472 543 39,000  Level Denver Center
Wed 08:17:46 PM 37.0089 -109.7214 55° Northeast 473 544 39,000  Level Denver Center
Wed 08:18:49 PM 37.0956 -109.5683 55° Northeast 479 551 39,000  Level Denver Center
Wed 08:19:51 PM 37.1681 -109.4367 55° Northeast 479 551 39,000  Level Denver Center
Wed 08:20:53 PM 37.2528 -109.2828 55° Northeast 480 552 39,000  Level Denver Center
Wed 08:21:55 PM 37.3253 -109.1517 55° Northeast 478 550 39,000  Level Denver Center
Wed 08:22:57 PM 37.4081 -109.0008 55° Northeast 473 544 39,000  Level Denver Center
Wed 08:23:59 PM 37.4792 -108.8711 55° Northeast 471 542 39,000  Level Denver Center
Wed 08:25:01 PM 37.5617 -108.7186 56° Northeast 471 542 39,000  Level Denver Center
Wed 08:26:03 PM 37.6319 -108.5892 56° Northeast 470 541 39,000  Level Denver Center
Wed 08:27:05 PM 37.7139 -108.4364 56° Northeast 470 541 39,000  Level Denver Center
Wed 08:28:07 PM 37.7844 -108.3042 56° Northeast 470 541 39,000  Level Denver Center
Wed 08:29:10 PM 37.8661 -108.1525 56° Northeast 470 541 39,000  Level Denver Center
Wed 08:30:12 PM 37.9369 -108.0228 55° Northeast 470 541 39,000  Level Denver Center
Wed 08:31:14 PM 38.0078 -107.8881 56° Northeast 474 545 39,000  Level Denver Center
Wed 08:32:16 PM 38.0936 -107.7233 56° Northeast 477 549 39,000  Level Denver Center
Wed 08:33:18 PM 38.1639 -107.5911 56° Northeast 476 548 39,000 242 Level Denver Center
Wed 08:34:20 PM 38.2450 -107.4347 57° Northeast 476 548 39,500 677 Climbing Denver Center
Wed 08:35:22 PM 38.3150 -107.3022 56° Northeast 474 545 40,400 726 Climbing Denver Center
Wed 08:36:24 PM 38.3625 -107.1481 69° East 481 554 41,000 290 Climbing Denver Center
Wed 08:37:26 PM 38.3950 -106.9797 76° East 490 564 41,000  Level Denver Center
Wed 08:38:28 PM 38.4258 -106.8106 77° East 491 565 41,000  Level Denver Center
Wed 08:39:30 PM 38.4650 -106.6092 76° East 491 565 41,000  Level Denver Center
Wed 08:40:33 PM 38.5139 -106.4472 69° East 493 567 41,000  Level Denver Center
Wed 08:41:35 PM 38.5611 -106.2842 70° East 493 567 41,000  Level Denver Center
Wed 08:42:37 PM 38.6114 -106.1192 69° East 493 567 41,000  Level Denver Center
Wed 08:43:39 PM 38.6594 -105.9561 69° East 491 565 41,000  Level Denver Center
Wed 08:44:41 PM 38.7156 -105.7636 69° East 486 559 41,000  Level Denver Center
Wed 08:45:43 PM 38.7628 -105.6022 69° East 485 558 41,000  Level Denver Center
Wed 08:46:45 PM 38.8097 -105.4414 69° East 485 558 41,000  Level Denver Center
Wed 08:47:47 PM 38.8572 -105.2817 69° East 485 558 41,000  Level Denver Center
Wed 08:48:49 PM 38.9025 -105.1192 70° East 485 558 41,000  Level Denver Center
Wed 08:49:51 PM 38.9581 -104.9256 70° East 485 558 41,000  Level Denver Center
Wed 08:50:54 PM 39.0039 -104.7619 70° East 488 562 41,000  Level Denver Center
Wed 08:51:56 PM 39.0494 -104.5992 70° East 489 563 41,000  Level Denver Center
Wed 08:52:58 PM 39.0942 -104.4381 70° East 488 562 41,000  Level Denver Center
Wed 08:54:00 PM 39.1389 -104.2767 70° East 483 556 41,000  Level Denver Center
Wed 08:55:02 PM 39.1922 -104.0819 70° East 483 556 41,000  Level Denver Center
Wed 08:56:04 PM 39.2361 -103.9217 70° East 481 554 41,000  Level Denver Center
Wed 08:57:06 PM 39.2797 -103.7583 71° East 481 554 41,000  Level Denver Center
Wed 08:58:08 PM 39.3236 -103.5961 71° East 481 554 41,000  Level Denver Center
Wed 08:59:10 PM 39.3672 -103.4339 71° East 481 554 41,000  Level Denver Center
Wed 09:00:13 PM 39.4200 -103.2364 71° East 483 556 41,000  Level Denver Center
Wed 09:01:15 PM 39.4636 -103.0714 71° East 484 557 41,000  Level Denver Center
Wed 09:02:17 PM 39.5067 -102.9067 71° East 484 557 41,000  Level Denver Center
Wed 09:03:19 PM 39.5500 -102.7411 71° East 486 559 41,000  Level Denver Center
Wed 09:04:21 PM 39.5939 -102.5756 71° East 487 560 41,000  Level Denver Center
Wed 09:05:23 PM 39.6406 -102.3947 71° East 486 559 41,000  Level Denver Center
Wed 09:06:25 PM 39.6878 -102.2075 72° East 488 562 41,000  Level Denver Center
Wed 09:07:27 PM 39.7283 -102.0450 72° East 495 570 41,000  Level Denver Center
Wed 09:08:29 PM 39.7758 -101.8542 72° East 496 571 41,000  Level Denver Center
Wed 09:09:31 PM 39.8167 -101.6889 72° East 498 573 41,000  Level Denver Center
Wed 09:10:34 PM 39.8644 -101.4992 72° East 498 573 41,000  Level Denver Center
Wed 09:11:36 PM 39.9053 -101.3339 72° East 498 573 41,000  Level Denver Center
Wed 09:12:38 PM 39.9508 -101.1428 73° East 497 572 41,000  Level Denver Center
Wed 09:13:40 PM 39.9911 -100.9808 72° East 497 572 41,000  Level Denver Center
Wed 09:14:42 PM 40.0356 -100.7931 73° East 494 568 41,000  Level Denver Center
Wed 09:15:44 PM 40.0742 -100.6333 72° East 490 564 41,000  Level Denver Center
Wed 09:16:46 PM 40.1181 -100.4469 73° East 486 559 41,000  Level Denver Center
Wed 09:17:48 PM 40.1547 -100.2894 73° East 481 554 41,000  Level Denver Center
Wed 09:18:50 PM 40.1992 -100.1042 73° East 481 554 41,000  Level Denver Center
Wed 09:19:52 PM 40.2358 -99.9442 73° East 481 554 41,000  Level Denver Center
Wed 09:20:54 PM 40.2750 -99.7700 74° East 481 554 41,000  Level Denver Center
Wed 09:21:56 PM 40.3142 -99.6031 73° East 481 554 41,000  Level Denver Center
Wed 09:22:59 PM 40.3522 -99.4325 74° East 484 557 41,000  Level Denver Center
Wed 09:24:01 PM 40.3906 -99.2628 73° East 485 558 41,000  Level Denver Center
Wed 09:25:03 PM 40.4353 -99.0603 74° East 485 558 41,000  Level Denver Center
Wed 09:26:06 PM 40.4719 -98.8922 74° East 485 558 41,000  Level Minneapolis Center
Wed 09:27:08 PM 40.5094 -98.7236 74° East 485 558 41,000  Level Minneapolis Center
Wed 09:28:10 PM 40.5458 -98.5572 74° East 484 557 41,000  Level Minneapolis Center
Wed 09:29:12 PM 40.5817 -98.3908 74° East 481 554 41,000  Level Minneapolis Center
Wed 09:30:14 PM 40.6236 -98.1931 74° East 477 549 41,000  Level Minneapolis Center
Wed 09:31:17 PM 40.6589 -98.0283 74° East 474 545 41,000  Level Minneapolis Center
Wed 09:32:19 PM 40.6928 -97.8633 75° East 471 542 41,000  Level Minneapolis Center
Wed 09:33:21 PM 40.7272 -97.6986 75° East 471 542 41,000  Level Minneapolis Center
Wed 09:34:23 PM 40.7625 -97.5333 74° East 471 542 41,000  Level Minneapolis Center
Wed 09:35:25 PM 40.7997 -97.3522 75° East 471 542 41,000  Level Minneapolis Center
Wed 09:36:27 PM 40.8342 -97.1844 75° East 471 542 41,000  Level Minneapolis Center
Wed 09:37:29 PM 40.8664 -97.0189 76° East 471 542 41,000  Level Minneapolis Center
Wed 09:38:31 PM 40.9069 -96.8186 75° East 471 542 41,000  Level Minneapolis Center
Wed 09:39:33 PM 40.9406 -96.6533 75° East 470 541 41,000  Level Minneapolis Center
Wed 09:40:34 PM 40.9692 -96.4853 77° East 471 542 41,000  Level Minneapolis Center
Wed 09:41:36 PM 40.9986 -96.3164 77° East 471 542 41,000  Level Minneapolis Center
Wed 09:42:38 PM 41.0283 -96.1514 77° East 471 542 41,000  Level Minneapolis Center
Wed 09:43:40 PM 41.0556 -95.9847 78° East 470 541 41,000  Level Minneapolis Center
Wed 09:44:42 PM 41.0900 -95.7861 77° East 470 541 41,000  Level Minneapolis Center
Wed 09:45:44 PM 41.1194 -95.6214 77° East 470 541 41,000  Level Minneapolis Center
Wed 09:46:46 PM 41.1469 -95.4558 78° East 467 537 41,000  Level Minneapolis Center
Wed 09:47:48 PM 41.1767 -95.2886 77° East 467 537 41,000  Level Minneapolis Center
Wed 09:48:50 PM 41.2058 -95.1222 77° East 467 537 41,000  Level Minneapolis Center
Wed 09:49:51 PM 41.2378 -94.9211 78° East 466 536 41,000  Level Minneapolis Center
Wed 09:50:53 PM 41.2650 -94.7533 78° East 466 536 41,000  Level Minneapolis Center
Wed 09:51:55 PM 41.2911 -94.5836 78° East 466 536 41,000  Level Minneapolis Center
Wed 09:52:57 PM 41.3181 -94.4169 78° East 466 536 41,000  Level Minneapolis Center
Wed 09:53:59 PM 41.3464 -94.2494 77° East 466 536 41,000  Level Minneapolis Center
Wed 09:55:01 PM 41.3761 -94.0572 78° East 466 536 41,000  Level Minneapolis Center
Wed 09:56:02 PM 41.4017 -93.8925 78° East 463 533 41,000  Level Minneapolis Center
Wed 09:57:04 PM 41.4261 -93.7278 79° East 462 532 41,000  Level Minneapolis Center
Wed 09:58:06 PM 41.4475 -93.5625 80° East 460 529 41,000  Level Minneapolis Center
Wed 09:59:07 PM 41.4622 -93.3953 83° East 460 529 41,000 -49 Level Minneapolis Center
Wed 10:00:09 PM 41.4772 -93.2281 83° East 458 527 40,900  Descending Minneapolis Center
Wed 10:01:11 PM 41.4975 -93.0244 82° East 458 527 41,000 49 Climbing Minneapolis Center
Wed 10:02:12 PM 41.5136 -92.8547 83° East 458 527 41,000  Level Minneapolis Center
Wed 10:03:14 PM 41.5283 -92.6872 83° East 459 528 41,000  Level Minneapolis Center
Wed 10:04:16 PM 41.5439 -92.5183 83° East 459 528 41,000  Level Minneapolis Center
Wed 10:05:17 PM 41.5583 -92.3486 83° East 459 528 41,000  Level Minneapolis Center
Wed 10:06:19 PM 41.5728 -92.1778 83° East 461 531 41,000  Level Minneapolis Center
Wed 10:07:21 PM 41.5878 -92.0092 83° East 461 531 41,000  Level Minneapolis Center
Wed 10:08:22 PM 41.6044 -91.8039 84° East 461 531 41,000  Level Minneapolis Center
Wed 10:09:48 PM 41.6222 -91.5714 84° East 464 534 41,000  Level Chicago Center
Wed 10:10:49 PM 41.6358 -91.4017 84° East 464 534 41,000  Level Chicago Center
Wed 10:11:51 PM 41.6492 -91.2317 84° East 464 534 41,000  Level Chicago Center
Wed 10:12:52 PM 41.6639 -91.0256 84° East 465 535 41,000  Level Chicago Center
Wed 10:13:54 PM 41.6772 -90.8531 84° East 469 540 41,000  Level Chicago Center
Wed 10:14:55 PM 41.6892 -90.6800 85° East 470 541 41,000  Level Chicago Center
Wed 10:15:57 PM 41.7039 -90.4883 84° East 470 541 41,000  Level Chicago Center
Wed 10:16:58 PM 41.7161 -90.3108 85° East 472 543 41,000  Level Chicago Center
Wed 10:18:00 PM 41.7269 -90.1361 85° East 472 543 41,000  Level Chicago Center
Wed 10:19:01 PM 41.7400 -89.9592 84° East 473 544 41,000  Level Chicago Center
Wed 10:20:03 PM 41.7511 -89.7842 85° East 473 544 41,000  Level Chicago Center
Wed 10:21:04 PM 41.7625 -89.6094 85° East 472 543 41,000  Level Chicago Center
Wed 10:22:06 PM 41.7753 -89.4167 85° East 473 544 41,000  Level Chicago Center
Wed 10:23:07 PM 41.7822 -89.2436 87° East 471 542 41,000  Level Chicago Center
Wed 10:24:09 PM 41.7931 -89.0672 85° East 471 542 41,000  Level Chicago Center
Wed 10:25:10 PM 41.8011 -88.8906 86° East 476 548 41,000  Level Chicago Center
Wed 10:26:12 PM 41.8097 -88.7122 86° East 480 552 41,000  Level Chicago Center
Wed 10:27:13 PM 41.8167 -88.5358 87° East 472 543 41,000  Level Chicago Center
Wed 10:28:14 PM 41.8250 -88.3558 86° East 477 549 41,000  Level Chicago Center
Wed 10:29:16 PM 41.8322 -88.1778 87° East 478 550 41,000  Level Chicago Center
Wed 10:30:17 PM 41.8408 -87.9981 86° East 478 550 41,000  Level Chicago Center
Wed 10:31:19 PM 41.8492 -87.7839 87° East 478 550 41,000  Level Chicago Center
Wed 10:32:20 PM 41.8547 -87.6050 88° East 478 550 41,000  Level Chicago Center
Wed 10:33:22 PM 41.8619 -87.4258 87° East 478 550 41,000  Level Chicago Center
Wed 10:34:23 PM 41.8667 -87.2469 88° East 478 550 41,000  Level Chicago Center
Wed 10:35:24 PM 41.8728 -87.0683 87° East 478 550 41,000  Level Chicago Center
Wed 10:36:26 PM 41.8769 -86.8919 88° East 477 549 41,000  Level Chicago Center
Wed 10:37:27 PM 41.8831 -86.7150 87° East 477 549 41,000  Level Chicago Center
Wed 10:38:29 PM 41.8886 -86.5214 88° East 472 543 41,000  Level Chicago Center
Wed 10:39:30 PM 41.8922 -86.3458 88° East 471 542 41,000  Level Chicago Center
Wed 10:40:31 PM 41.8964 -86.1711 88° East 470 541 41,000  Level Chicago Center
Wed 10:41:33 PM 41.9003 -85.9964 88° East 470 541 41,000  Level Chicago Center
Wed 10:42:34 PM 41.9050 -85.8208 88° East 470 541 41,000  Level Chicago Center
Wed 10:43:35 PM 41.9083 -85.6461 88° East 469 540 41,000  Level Chicago Center
Wed 10:44:37 PM 41.9131 -85.4700 88° East 468 539 41,000  Level Chicago Center
Wed 10:45:38 PM 41.9153 -85.2933 89° East 467 537 41,000  Level Chicago Center
Wed 10:46:39 PM 41.9183 -85.1169 89° East 467 537 41,000  Level Chicago Center
Wed 10:47:41 PM 41.9208 -84.9422 89° East 467 537 41,000  Level Chicago Center
Wed 10:48:42 PM 41.9217 -84.7650 90° East 473 544 41,000  Level Chicago Center
Wed 10:49:44 PM 41.9236 -84.5906 89° East 471 542 41,000  Level Chicago Center
Wed 10:50:45 PM 41.9256 -84.3808 89° East 470 541 41,000  Level Chicago Center
Wed 10:51:46 PM 41.9250 -84.2050 90° East 470 541 41,000  Level Chicago Center
Wed 10:52:47 PM 41.9172 -84.0300 93° East 471 542 41,000  Level Chicago Center
Wed 10:53:48 PM 41.9100 -83.8542 93° East 470 541 41,000  Level Chicago Center
Wed 10:54:55 PM 41.9017 -83.6753 94° East 474 545 41,000  Level Cleveland Center
Wed 10:55:56 PM 41.8936 -83.4683 93° East 474 545 41,000  Level Cleveland Center
Wed 10:56:57 PM 41.8850 -83.2914 94° East 474 545 41,000  Level Cleveland Center
Wed 10:57:59 PM 41.8764 -83.1136 94° East 479 551 41,000  Level Cleveland Center
Wed 10:59:00 PM 41.8681 -82.9356 94° East 482 555 41,000  Level Cleveland Center
Wed 11:00:01 PM 41.8586 -82.7575 94° East 482 555 41,000  Level Cleveland Center
Wed 11:01:02 PM 41.8497 -82.5781 94° East 484 557 41,000  Level Cleveland Center
Wed 11:02:04 PM 41.8400 -82.3975 94° East 484 557 41,000  Level Cleveland Center
Wed 11:03:05 PM 41.8306 -82.2181 94° East 484 557 41,000  Level Cleveland Center
Wed 11:04:06 PM 41.8183 -82.0164 95° East 485 558 41,000  Level Cleveland Center
Wed 11:05:07 PM 41.8083 -81.8350 94° East 484 557 41,000  Level Cleveland Center
Wed 11:06:09 PM 41.7981 -81.6514 94° East 485 558 41,000  Level Cleveland Center
Wed 11:07:10 PM 41.7858 -81.4683 95° East 485 558 41,000  Level Cleveland Center
Wed 11:08:11 PM 41.7739 -81.2856 95° East 485 558 41,000  Level Cleveland Center
Wed 11:09:12 PM 41.7628 -81.1019 95° East 485 558 41,000  Level Cleveland Center
Wed 11:10:14 PM 41.7503 -80.9203 95° East 485 558 41,000  Level Cleveland Center
Wed 11:11:15 PM 41.7350 -80.7369 96° East 488 562 41,000  Level Cleveland Center
Wed 11:12:16 PM 41.7200 -80.5547 96° East 488 562 41,000  Level Cleveland Center
Wed 11:13:17 PM 41.7044 -80.3725 96° East 488 562 41,000  Level Cleveland Center
Wed 11:14:18 PM 41.6881 -80.1889 97° East 490 564 41,000  Level Cleveland Center
Wed 11:15:20 PM 41.6742 -80.0061 96° East 491 565 41,000  Level Cleveland Center
Wed 11:16:21 PM 41.6553 -79.7958 97° East 491 565 41,000  Level Cleveland Center
Wed 11:17:22 PM 41.6381 -79.6164 97° East 491 565 41,000  Level Cleveland Center
Wed 11:18:23 PM 41.6214 -79.4361 97° East 491 565 41,000  Level Cleveland Center
Wed 11:19:25 PM 41.6036 -79.2556 97° East 491 565 41,000  Level Cleveland Center
Wed 11:20:26 PM 41.5872 -79.0772 97° East 491 565 41,000  Level Cleveland Center
Wed 11:21:27 PM 41.5689 -78.8983 98° East 489 563 41,000  Level Cleveland Center
Wed 11:22:28 PM 41.5511 -78.7189 97° East 489 563 41,000  Level Cleveland Center
Wed 11:23:30 PM 41.5331 -78.5408 98° East 488 562 41,000  Level Cleveland Center
Wed 11:24:31 PM 41.5147 -78.3611 98° East 488 562 41,000  Level Cleveland Center
Wed 11:25:32 PM 41.4956 -78.1814 98° East 489 563 41,000  Level Cleveland Center
Wed 11:26:34 PM 41.4731 -77.9678 98° East 489 563 41,000  Level Cleveland Center
Wed 11:27:35 PM 41.4539 -77.7900 98° East 488 562 41,000  Level Cleveland Center
Wed 11:28:36 PM 41.4333 -77.6108 99° East 488 562 41,000  Level Cleveland Center
Wed 11:29:38 PM 41.4089 -77.4375 101° East 483 556 41,000 -244 Level Cleveland Center
Wed 11:30:39 PM 41.3719 -77.2694 106° East 478 550 40,500 -738 Descending Cleveland Center
Wed 11:31:40 PM 41.3344 -77.1033 107° East 476 548 39,500 -927 Descending Cleveland Center
Wed 11:32:42 PM 41.2992 -76.9347 106° East 474 545 38,600 -927 Descending Cleveland Center
Wed 11:33:43 PM 41.2619 -76.7697 107° East 470 541 37,600 -2,311 Descending Cleveland Center
Wed 11:34:44 PM 41.2178 -76.5689 106° East 471 542 33,900 -3,590 Descending Cleveland Center
Wed 11:35:45 PM 41.1789 -76.4003 107° East 477 549 30,300 -3,045 Descending Cleveland Center
Wed 11:36:56 PM 41.1358 -76.2203 108° East 472 543 27,200 -2,682 Descending New York Center
Wed 11:37:57 PM 41.1014 -76.0633 106° East 465 535 24,400 -2,656 Descending New York Center
Wed 11:38:58 PM 41.0647 -75.9061 107° East 447 514 21,800 -2,773 Descending New York Center
Wed 11:39:56 PM 41.0297 -75.7494 106° East 424 488 18,900 -2,667 Descending New York Center
Wed 11:40:55 PM 41.0014 -75.6236 107° East 395 455 16,600 -2,550 Descending New York Center
Wed 11:41:56 PM 40.9658 -75.4728 107° East 390 449 13,800 -2,459 Descending New York Center
Wed 11:42:57 PM 40.9411 -75.3583 106° East 385 443 11,600 -1,736 Descending New York Center
Wed 11:43:57 PM 40.9106 -75.2328 108° East 369 425 10,300 -1,160 Descending New York Center
Wed 11:44:56 PM 40.9028 -75.1061 95° East 328 377 9,300 -750 Descending New York Center
Wed 11:45:57 PM 40.8964 -74.9958 94° East 307 353 8,800 -885 Descending New York Center
Wed 11:46:58 PM 40.8919 -74.8886 93° East 296 341 7,500 -1,350 Descending New York Center
Wed 11:47:57 PM 40.8867 -74.7975 94° East 291 335 6,100 -1,250 Descending New York Center
Wed 11:48:58 PM 40.8800 -74.6875 95° East 275 316 5,000 -958 Descending New York Center
Wed 11:49:56 PM 40.8786 -74.5994 91° East 269 310 4,200 -508 Descending New York Center
Wed 11:50:56 PM 40.8719 -74.4894 95° East 269 310 4,000 -100 Descending New York Center
Wed 11:51:56 PM 40.8661 -74.4014 95° East 269 310 4,000 -492 Level New York Center
Wed 11:52:58 PM 40.8611 -74.2967 94° East 269 310 3,000 -492 Descending New York Center
Wed 11:53:58 PM 40.8569 -74.2281 95° East 233 268 3,000 -252 Level New York Center
Wed 11:54:57 PM 40.8422 -74.1586 106° East 201 231 2,500 -300 Descending New York Center
Wed 11:55:58 PM 40.8064 -74.0992 129° Southeast 190 219 2,400 -353 Descending New York Center
Wed 11:56:56 PM 40.7622 -74.1192 199° South 159 183 1,800 -903 Descending New York Center
Wed 11:57:31 PM 40.7333 -74.1333 200° South 167 192 1,000 -1,371 Descending New York TRACON

Login

Don't have an account? Register now (free) for customized features, flight alerts, and more!